Terminal Aerodrome Forecast
Issued by NWS

Home | Current Version | Previous Version | Text Only | Print | Product List | Glossary On
Versions: 1 2 3 4 5 6 7 8 9 10 11 12
000
FTUS46 KMTR 271135
TAFMRY
TAF
KMRY 271135Z 2712/2812 14004KT P6SM SKC
     FM271800 29010KT P6SM SKC
     FM280400 24006KT P6SM SCT008
     FM280600 24004KT P6SM OVC005=

USA.gov is the U.S. government's official web portal to all federal, state and local government web resources and services.